Time;durP1;ratioP1;P1;durP2;ratioP2;P2;SDS_P1;SDS_P2;PMS_P1;PMS_P2;Temp;Humidity;BMP_temperature;BMP_pressure;BME280_temperature;BME280_humidity;BME280_pressure;Samples;Min_cycle;Max_cycle;Signal;HPM_P1;HPM_P2
2019/06/03 00:00:54;;;;;;;5.03;3.20;;;;;;;21.04;51.82;100329.69;;;;-53
2019/06/03 00:03:51;;;;;;;4.46;3.35;;;;;;;21.03;51.76;100322.70;;;;-52
2019/06/03 00:06:51;;;;;;;4.50;3.30;;;;;;;21.03;51.77;100321.13;;;;-51
2019/06/03 00:09:51;;;;;;;4.37;3.23;;;;;;;21.03;51.78;100320.34;;;;-52
2019/06/03 00:12:51;;;;;;;4.03;3.33;;;;;;;21.02;51.83;100316.39;;;;-51
2019/06/03 00:15:52;;;;;;;4.71;3.45;;;;;;;21.01;51.77;100314.67;;;;-51
2019/06/03 00:18:51;;;;;;;4.71;3.26;;;;;;;21.01;51.81;100308.52;;;;-52
2019/06/03 00:21:51;;;;;;;4.52;3.07;;;;;;;21.01;51.79;100307.45;;;;-53
2019/06/03 00:24:52;;;;;;;4.79;3.30;;;;;;;21.00;51.77;100304.13;;;;-52
2019/06/03 00:27:51;;;;;;;4.19;3.36;;;;;;;20.99;51.82;100300.59;;;;-51
2019/06/03 00:30:52;;;;;;;3.64;3.17;;;;;;;21.00;51.80;100295.56;;;;-51
2019/06/03 00:33:51;;;;;;;3.85;3.22;;;;;;;20.99;51.80;100294.12;;;;-52
2019/06/03 00:36:51;;;;;;;4.34;3.31;;;;;;;20.99;51.83;100291.59;;;;-52
2019/06/03 00:39:52;;;;;;;3.65;3.14;;;;;;;20.99;51.80;100292.00;;;;-52
2019/06/03 00:42:52;;;;;;;4.87;3.13;;;;;;;20.99;51.73;100293.95;;;;-51
2019/06/03 00:45:52;;;;;;;3.91;3.29;;;;;;;20.99;51.76;100293.28;;;;-51
2019/06/03 00:48:52;;;;;;;3.66;3.17;;;;;;;20.98;51.76;100292.06;;;;-52
2019/06/03 00:51:52;;;;;;;3.95;2.90;;;;;;;20.98;51.74;100292.91;;;;-52
2019/06/03 00:54:51;;;;;;;3.48;2.99;;;;;;;20.98;51.74;100295.16;;;;-52
2019/06/03 00:57:51;;;;;;;4.39;3.13;;;;;;;20.97;51.79;100295.32;;;;-51
2019/06/03 01:00:51;;;;;;;4.61;3.05;;;;;;;20.97;51.76;100296.30;;;;-52
2019/06/03 01:03:52;;;;;;;3.85;3.01;;;;;;;20.97;51.80;100297.23;;;;-52
2019/06/03 01:06:51;;;;;;;3.95;2.93;;;;;;;20.96;51.78;100294.01;;;;-52
2019/06/03 01:09:51;;;;;;;3.58;3.17;;;;;;;20.97;51.78;100291.19;;;;-52
2019/06/03 01:12:52;;;;;;;3.61;3.01;;;;;;;20.95;51.72;100292.06;;;;-52
2019/06/03 01:15:51;;;;;;;3.26;2.91;;;;;;;20.96;51.72;100298.88;;;;-53
2019/06/03 01:18:51;;;;;;;3.25;2.90;;;;;;;20.96;51.70;100298.47;;;;-52
2019/06/03 01:21:51;;;;;;;3.71;3.20;;;;;;;20.96;51.72;100299.38;;;;-51
2019/06/03 01:24:51;;;;;;;4.03;2.92;;;;;;;20.96;51.67;100299.48;;;;-52
2019/06/03 01:27:51;;;;;;;3.27;2.85;;;;;;;20.97;51.70;100300.92;;;;-52
2019/06/03 01:30:51;;;;;;;3.96;2.92;;;;;;;20.96;51.68;100304.98;;;;-51
2019/06/03 01:33:51;;;;;;;3.07;2.77;;;;;;;20.95;51.74;100304.31;;;;-51
2019/06/03 01:36:52;;;;;;;3.29;2.99;;;;;;;20.96;51.67;100304.08;;;;-52
2019/06/03 01:39:51;;;;;;;4.45;2.85;;;;;;;20.95;51.65;100300.35;;;;-52
2019/06/03 01:42:51;;;;;;;3.65;3.06;;;;;;;20.94;51.69;100296.29;;;;-52
2019/06/03 01:45:51;;;;;;;4.03;2.91;;;;;;;20.94;51.63;100296.05;;;;-52
2019/06/03 01:48:52;;;;;;;3.53;3.13;;;;;;;20.94;51.67;100299.75;;;;-52
2019/06/03 01:51:51;;;;;;;3.08;2.78;;;;;;;20.95;51.64;100298.23;;;;-52
2019/06/03 01:54:51;;;;;;;3.34;2.99;;;;;;;20.94;51.70;100296.80;;;;-52
2019/06/03 01:57:51;;;;;;;3.37;2.93;;;;;;;20.94;51.66;100295.11;;;;-52
2019/06/03 02:00:51;;;;;;;3.55;2.91;;;;;;;20.94;51.63;100293.53;;;;-52
2019/06/03 02:03:51;;;;;;;4.49;2.89;;;;;;;20.94;51.69;100290.75;;;;-52
2019/06/03 02:06:51;;;;;;;3.36;3.05;;;;;;;20.94;51.60;100288.90;;;;-52
2019/06/03 02:09:52;;;;;;;3.41;2.94;;;;;;;20.94;51.63;100290.41;;;;-52
2019/06/03 02:12:51;;;;;;;3.11;2.81;;;;;;;20.94;51.64;100290.58;;;;-52
2019/06/03 02:15:51;;;;;;;2.93;2.63;;;;;;;20.93;51.61;100290.81;;;;-52
2019/06/03 02:18:51;;;;;;;3.09;2.77;;;;;;;20.94;51.61;100294.27;;;;-52
2019/06/03 02:21:51;;;;;;;3.14;2.83;;;;;;;20.93;51.61;100289.64;;;;-52
2019/06/03 02:24:51;;;;;;;3.10;2.80;;;;;;;20.93;51.60;100291.48;;;;-53
2019/06/03 02:27:51;;;;;;;3.49;2.96;;;;;;;20.94;51.57;100292.86;;;;-52
2019/06/03 02:30:52;;;;;;;3.12;2.57;;;;;;;20.93;51.56;100287.19;;;;-52
2019/06/03 02:33:51;;;;;;;3.49;2.96;;;;;;;20.94;51.54;100286.22;;;;-52
2019/06/03 02:36:51;;;;;;;3.17;2.78;;;;;;;20.93;51.59;100285.61;;;;-52
2019/06/03 02:39:51;;;;;;;4.07;2.79;;;;;;;20.93;51.53;100284.67;;;;-52
2019/06/03 02:42:51;;;;;;;3.21;2.70;;;;;;;20.93;51.56;100287.02;;;;-51
2019/06/03 02:45:51;;;;;;;3.07;2.70;;;;;;;20.93;51.57;100289.27;;;;-52
2019/06/03 02:48:51;;;;;;;3.34;2.75;;;;;;;20.92;51.55;100293.36;;;;-52
2019/06/03 02:51:51;;;;;;;3.07;2.77;;;;;;;20.92;51.59;100291.52;;;;-52
2019/06/03 02:54:51;;;;;;;3.79;2.83;;;;;;;20.91;51.60;100290.98;;;;-52
2019/06/03 02:57:52;;;;;;;3.03;2.73;;;;;;;20.90;51.58;100289.53;;;;-52
2019/06/03 03:00:51;;;;;;;3.48;2.87;;;;;;;20.91;51.55;100292.66;;;;-52
2019/06/03 03:03:52;;;;;;;3.02;2.72;;;;;;;20.92;51.56;100287.32;;;;-52
2019/06/03 03:06:52;;;;;;;2.75;2.54;;;;;;;20.91;51.54;100286.45;;;;-52
2019/06/03 03:09:51;;;;;;;3.36;2.79;;;;;;;20.91;51.51;100284.43;;;;-52
2019/06/03 03:12:52;;;;;;;2.97;2.65;;;;;;;20.91;51.50;100282.25;;;;-52
2019/06/03 03:15:52;;;;;;;3.19;2.78;;;;;;;20.91;51.54;100285.27;;;;-52
2019/06/03 03:18:51;;;;;;;2.95;2.66;;;;;;;20.91;51.48;100284.09;;;;-51
2019/06/03 03:21:51;;;;;;;3.66;2.76;;;;;;;20.92;51.55;100286.55;;;;-52
2019/06/03 03:24:51;;;;;;;2.86;2.52;;;;;;;20.92;51.50;100288.73;;;;-52
2019/06/03 03:27:51;;;;;;;3.03;2.73;;;;;;;20.91;51.50;100286.00;;;;-52
2019/06/03 03:30:51;;;;;;;3.53;2.93;;;;;;;20.91;51.47;100289.90;;;;-51
2019/06/03 03:33:51;;;;;;;2.99;2.63;;;;;;;20.91;51.47;100294.00;;;;-52
2019/06/03 03:36:51;;;;;;;2.83;2.60;;;;;;;20.91;51.50;100301.05;;;;-51
2019/06/03 03:39:52;;;;;;;3.03;2.78;;;;;;;20.91;51.44;100301.88;;;;-52
2019/06/03 03:42:51;;;;;;;3.23;2.89;;;;;;;20.91;51.47;100307.42;;;;-52
2019/06/03 03:45:51;;;;;;;2.89;2.61;;;;;;;20.90;51.49;100312.70;;;;-52
2019/06/03 03:48:51;;;;;;;3.04;2.69;;;;;;;20.90;51.50;100315.78;;;;-51
2019/06/03 03:51:51;;;;;;;2.89;2.58;;;;;;;20.90;51.48;100308.30;;;;-51
2019/06/03 03:54:51;;;;;;;3.20;2.51;;;;;;;20.90;51.49;100303.94;;;;-52
2019/06/03 03:57:51;;;;;;;2.79;2.50;;;;;;;20.89;51.51;100303.93;;;;-52
2019/06/03 04:00:51;;;;;;;2.62;2.42;;;;;;;20.90;51.51;100304.44;;;;-52
2019/06/03 04:03:51;;;;;;;3.71;2.52;;;;;;;20.89;51.53;100309.88;;;;-53
2019/06/03 04:06:51;;;;;;;2.69;2.49;;;;;;;20.89;51.47;100307.96;;;;-52
2019/06/03 04:09:51;;;;;;;2.97;2.61;;;;;;;20.89;51.47;100308.47;;;;-52
2019/06/03 04:12:51;;;;;;;2.77;2.57;;;;;;;20.88;51.51;100304.13;;;;-52
2019/06/03 04:15:51;;;;;;;3.15;2.55;;;;;;;20.89;51.47;100304.27;;;;-52
2019/06/03 04:18:51;;;;;;;3.33;2.51;;;;;;;20.89;51.49;100302.08;;;;-51
2019/06/03 04:21:51;;;;;;;2.81;2.61;;;;;;;20.90;51.50;100303.59;;;;-51
2019/06/03 04:24:51;;;;;;;2.79;2.49;;;;;;;20.89;51.46;100306.95;;;;-53
2019/06/03 04:27:52;;;;;;;3.74;2.50;;;;;;;20.89;51.46;100315.75;;;;-52
2019/06/03 04:30:51;;;;;;;2.61;2.36;;;;;;;20.89;51.47;100317.93;;;;-51
2019/06/03 04:33:51;;;;;;;2.79;2.52;;;;;;;20.89;51.44;100319.11;;;;-52
2019/06/03 04:36:51;;;;;;;2.56;2.36;;;;;;;20.89;51.45;100318.16;;;;-51
2019/06/03 04:39:51;;;;;;;3.01;2.67;;;;;;;20.88;51.46;100318.06;;;;-52
2019/06/03 04:42:51;;;;;;;2.82;2.49;;;;;;;20.88;51.48;100312.13;;;;-52
2019/06/03 04:45:51;;;;;;;2.75;2.41;;;;;;;20.88;51.47;100310.51;;;;-52
2019/06/03 04:48:51;;;;;;;2.57;2.37;;;;;;;20.89;51.42;100311.78;;;;-53
2019/06/03 04:51:51;;;;;;;2.65;2.45;;;;;;;20.88;51.48;100311.45;;;;-51
2019/06/03 04:54:51;;;;;;;2.94;2.50;;;;;;;20.88;51.44;100310.67;;;;-52
2019/06/03 04:57:51;;;;;;;2.61;2.41;;;;;;;20.88;51.46;100308.83;;;;-51
2019/06/03 05:00:51;;;;;;;3.52;2.47;;;;;;;20.87;51.50;100307.05;;;;-52
2019/06/03 05:03:51;;;;;;;2.69;2.49;;;;;;;20.87;51.49;100304.86;;;;-53
2019/06/03 05:06:51;;;;;;;2.62;2.37;;;;;;;20.88;51.47;100306.24;;;;-52
2019/06/03 05:09:51;;;;;;;2.65;2.41;;;;;;;20.88;51.46;100304.20;;;;-52
2019/06/03 05:12:51;;;;;;;2.47;2.27;;;;;;;20.88;51.42;100304.47;;;;-52
2019/06/03 05:15:51;;;;;;;2.69;2.45;;;;;;;20.88;51.43;100306.81;;;;-52
2019/06/03 05:18:52;;;;;;;2.61;2.41;;;;;;;20.88;51.39;100310.67;;;;-51
2019/06/03 05:21:51;;;;;;;2.75;2.48;;;;;;;20.89;51.39;100313.12;;;;-52
2019/06/03 05:24:51;;;;;;;2.52;2.32;;;;;;;20.88;51.37;100305.37;;;;-52
2019/06/03 05:27:51;;;;;;;2.43;2.23;;;;;;;20.88;51.41;100302.55;;;;-51
2019/06/03 05:30:51;;;;;;;2.31;2.11;;;;;;;20.89;51.41;100303.05;;;;-52
2019/06/03 05:33:51;;;;;;;2.59;2.39;;;;;;;20.87;51.37;100298.22;;;;-52
2019/06/03 05:36:51;;;;;;;2.57;2.37;;;;;;;20.88;51.39;100296.14;;;;-52
2019/06/03 05:39:51;;;;;;;2.59;2.39;;;;;;;20.88;51.40;100297.48;;;;-51
2019/06/03 05:42:51;;;;;;;2.55;2.35;;;;;;;20.88;51.39;100308.33;;;;-51
2019/06/03 05:45:51;;;;;;;2.59;2.39;;;;;;;20.88;51.42;100310.41;;;;-51
2019/06/03 05:48:51;;;;;;;2.57;2.37;;;;;;;20.87;51.35;100302.08;;;;-51
2019/06/03 05:51:51;;;;;;;2.41;2.21;;;;;;;20.88;51.41;100310.44;;;;-51
2019/06/03 05:54:51;;;;;;;7.57;2.55;;;;;;;20.88;51.60;100315.71;;;;-52
2019/06/03 05:57:51;;;;;;;3.31;2.39;;;;;;;20.88;51.45;100324.95;;;;-52
2019/06/03 06:00:51;;;;;;;5.90;2.53;;;;;;;20.88;51.47;100327.23;;;;-53
2019/06/03 06:03:51;;;;;;;4.00;2.37;;;;;;;20.88;51.43;100326.72;;;;-52
2019/06/03 06:06:51;;;;;;;2.63;2.43;;;;;;;20.89;51.65;100328.34;;;;-53
2019/06/03 06:09:51;;;;;;;3.79;2.46;;;;;;;20.92;51.68;100327.00;;;;-52
2019/06/03 06:12:51;;;;;;;4.15;2.41;;;;;;;20.93;51.76;100321.60;;;;-51
2019/06/03 06:15:51;;;;;;;3.32;2.37;;;;;;;20.95;51.90;100319.16;;;;-52
2019/06/03 06:18:51;;;;;;;3.75;2.40;;;;;;;20.97;51.84;100317.38;;;;-51
2019/06/03 06:21:51;;;;;;;3.83;2.30;;;;;;;20.99;51.95;100316.17;;;;-58
2019/06/03 06:24:51;;;;;;;5.23;2.45;;;;;;;21.01;51.89;100314.50;;;;-54
2019/06/03 06:27:52;;;;;;;3.63;2.64;;;;;;;21.01;51.95;100319.30;;;;-54
2019/06/03 06:30:52;;;;;;;4.09;2.68;;;;;;;21.00;51.96;100313.73;;;;-54
2019/06/03 06:33:51;;;;;;;2.55;2.35;;;;;;;21.03;51.89;100316.08;;;;-54
2019/06/03 06:36:51;;;;;;;4.43;2.40;;;;;;;21.03;51.91;100318.00;;;;-52
2019/06/03 06:39:51;;;;;;;3.44;2.85;;;;;;;21.02;51.90;100318.47;;;;-52
2019/06/03 06:42:51;;;;;;;2.90;2.61;;;;;;;21.03;51.85;100319.11;;;;-51
2019/06/03 06:45:51;;;;;;;3.03;2.40;;;;;;;21.03;51.86;100320.11;;;;-52
2019/06/03 06:48:51;;;;;;;3.03;2.47;;;;;;;21.02;51.81;100319.31;;;;-52
2019/06/03 06:51:51;;;;;;;2.93;2.49;;;;;;;21.02;51.77;100320.92;;;;-52
2019/06/03 06:54:51;;;;;;;3.21;2.51;;;;;;;21.02;51.75;100317.56;;;;-52
2019/06/03 06:57:51;;;;;;;6.83;2.54;;;;;;;21.03;51.95;100323.81;;;;-51
2019/06/03 07:00:51;;;;;;;3.85;2.60;;;;;;;21.05;51.90;100329.92;;;;-52
2019/06/03 07:03:51;;;;;;;4.04;2.38;;;;;;;21.06;52.00;100327.45;;;;-51
2019/06/03 07:06:51;;;;;;;3.03;2.52;;;;;;;21.07;51.95;100326.20;;;;-53
2019/06/03 07:09:51;;;;;;;4.29;2.71;;;;;;;21.09;52.04;100322.48;;;;-53
2019/06/03 07:12:52;;;;;;;5.07;2.37;;;;;;;21.10;52.02;100323.72;;;;-54
2019/06/03 07:15:51;;;;;;;3.45;2.49;;;;;;;21.11;52.01;100321.14;;;;-50
2019/06/03 07:18:51;;;;;;;3.21;2.51;;;;;;;21.13;52.00;100322.63;;;;-52
2019/06/03 07:21:51;;;;;;;2.76;2.43;;;;;;;21.13;51.89;100315.06;;;;-52
2019/06/03 07:24:51;;;;;;;2.68;2.45;;;;;;;21.13;51.92;100314.59;;;;-53
2019/06/03 07:27:51;;;;;;;3.09;2.59;;;;;;;21.13;51.98;100311.41;;;;-52
2019/06/03 07:30:51;;;;;;;2.65;2.38;;;;;;;21.11;52.03;100312.17;;;;-55
2019/06/03 07:33:51;;;;;;;4.25;2.37;;;;;;;21.13;52.11;100314.33;;;;-57
2019/06/03 07:36:51;;;;;;;2.79;2.36;;;;;;;21.13;52.03;100314.16;;;;-57
2019/06/03 07:39:51;;;;;;;2.77;2.41;;;;;;;21.14;52.07;100314.80;;;;-56
2019/06/03 07:42:51;;;;;;;5.64;2.49;;;;;;;21.15;52.13;100312.11;;;;-58
2019/06/03 07:45:52;;;;;;;3.89;2.50;;;;;;;21.15;51.83;100311.81;;;;-54
2019/06/03 07:48:51;;;;;;;4.41;2.46;;;;;;;21.15;51.71;100310.77;;;;-54
2019/06/03 07:51:52;;;;;;;3.67;2.57;;;;;;;21.14;51.74;100305.56;;;;-54
2019/06/03 07:54:51;;;;;;;3.60;2.65;;;;;;;21.13;51.65;100303.75;;;;-54
2019/06/03 07:57:52;;;;;;;4.41;2.31;;;;;;;21.13;51.68;100296.42;;;;-54
2019/06/03 08:00:51;;;;;;;2.41;2.10;;;;;;;21.13;51.71;100294.44;;;;-54
2019/06/03 08:03:51;;;;;;;2.81;2.35;;;;;;;21.13;51.65;100293.00;;;;-54
2019/06/03 08:06:51;;;;;;;3.93;2.40;;;;;;;21.12;51.60;100292.30;;;;-54
2019/06/03 08:09:51;;;;;;;2.78;2.39;;;;;;;21.12;51.59;100290.01;;;;-53
2019/06/03 08:12:51;;;;;;;2.95;2.30;;;;;;;21.11;51.57;100288.39;;;;-54
2019/06/03 08:15:51;;;;;;;2.94;2.49;;;;;;;21.10;51.52;100286.72;;;;-54
2019/06/03 08:18:51;;;;;;;3.67;2.45;;;;;;;21.10;51.57;100286.21;;;;-53
2019/06/03 08:21:51;;;;;;;3.67;2.35;;;;;;;21.10;51.51;100287.19;;;;-53
2019/06/03 08:24:52;;;;;;;3.53;2.43;;;;;;;21.10;51.49;100293.27;;;;-54
2019/06/03 08:27:51;;;;;;;4.05;2.44;;;;;;;21.09;51.42;100299.27;;;;-54
2019/06/03 08:30:51;;;;;;;3.63;2.33;;;;;;;21.09;51.45;100301.52;;;;-54
2019/06/03 08:33:51;;;;;;;4.71;2.40;;;;;;;21.08;51.47;100296.05;;;;-53
2019/06/03 08:36:51;;;;;;;3.26;2.30;;;;;;;21.08;51.44;100291.14;;;;-53
2019/06/03 08:39:51;;;;;;;2.55;2.22;;;;;;;21.08;51.42;100288.69;;;;-53
2019/06/03 08:42:51;;;;;;;3.59;2.40;;;;;;;21.07;51.45;100279.69;;;;-53
2019/06/03 08:45:51;;;;;;;3.09;2.41;;;;;;;21.07;51.42;100284.06;;;;-53
2019/06/03 08:48:51;;;;;;;2.45;2.25;;;;;;;21.07;51.46;100282.55;;;;-53
2019/06/03 08:51:51;;;;;;;3.39;2.54;;;;;;;21.05;51.44;100273.67;;;;-54
2019/06/03 08:54:51;;;;;;;4.39;2.37;;;;;;;21.05;51.94;100277.84;;;;-49
2019/06/03 08:57:51;;;;;;;3.19;2.16;;;;;;;21.07;51.83;100279.25;;;;-49
2019/06/03 09:00:51;;;;;;;3.93;2.39;;;;;;;21.08;52.00;100276.30;;;;-49
2019/06/03 09:03:51;;;;;;;5.15;2.61;;;;;;;21.10;51.99;100278.62;;;;-52
2019/06/03 09:06:51;;;;;;;3.72;2.50;;;;;;;21.12;52.42;100286.75;;;;-56
2019/06/03 09:09:51;;;;;;;6.21;2.64;;;;;;;21.14;52.16;100286.98;;;;-56
2019/06/03 09:12:51;;;;;;;5.73;2.69;;;;;;;21.14;52.10;100288.00;;;;-56
2019/06/03 09:15:51;;;;;;;6.39;2.50;;;;;;;21.16;52.45;100287.05;;;;-58
2019/06/03 09:18:51;;;;;;;5.05;2.37;;;;;;;21.16;52.46;100283.97;;;;-59
2019/06/03 09:21:51;;;;;;;5.76;2.57;;;;;;;21.17;52.47;100278.42;;;;-50
2019/06/03 09:24:51;;;;;;;5.71;2.49;;;;;;;21.19;52.50;100269.59;;;;-54
2019/06/03 09:27:51;;;;;;;6.23;2.67;;;;;;;21.21;52.70;100269.84;;;;-52
2019/06/03 09:30:51;;;;;;;5.21;2.55;;;;;;;21.23;52.50;100268.83;;;;-51
2019/06/03 09:33:51;;;;;;;5.83;2.79;;;;;;;21.24;52.82;100273.73;;;;-56
2019/06/03 09:36:51;;;;;;;5.16;2.63;;;;;;;21.25;52.67;100264.59;;;;-56
2019/06/03 09:39:51;;;;;;;5.31;2.64;;;;;;;21.27;52.68;100262.72;;;;-51
2019/06/03 09:42:51;;;;;;;5.86;2.41;;;;;;;21.27;52.78;100262.41;;;;-58
2019/06/03 09:45:52;;;;;;;6.05;2.53;;;;;;;21.29;52.57;100266.14;;;;-57
2019/06/03 09:48:51;;;;;;;5.33;2.41;;;;;;;21.29;52.65;100267.19;;;;-57
2019/06/03 09:51:51;;;;;;;7.57;2.80;;;;;;;21.30;52.71;100268.97;;;;-58
2019/06/03 09:54:51;;;;;;;4.95;2.61;;;;;;;21.32;52.57;100268.53;;;;-52
2019/06/03 09:57:51;;;;;;;3.97;2.67;;;;;;;21.33;52.77;100273.33;;;;-52
2019/06/03 10:00:51;;;;;;;8.75;3.07;;;;;;;21.35;52.69;100271.99;;;;-63
2019/06/03 10:03:51;;;;;;;6.16;2.51;;;;;;;21.36;52.52;100269.13;;;;-52
2019/06/03 10:06:51;;;;;;;5.59;2.77;;;;;;;21.37;52.47;100266.28;;;;-52
2019/06/03 10:09:51;;;;;;;5.20;2.53;;;;;;;21.38;52.28;100261.47;;;;-55
2019/06/03 10:12:51;;;;;;;3.55;2.57;;;;;;;21.37;52.29;100258.08;;;;-55
2019/06/03 10:15:51;;;;;;;7.57;2.59;;;;;;;21.36;52.62;100259.09;;;;-52
2019/06/03 10:18:51;;;;;;;6.81;2.61;;;;;;;21.38;52.79;100256.06;;;;-57
2019/06/03 10:21:51;;;;;;;5.16;2.74;;;;;;;21.36;52.53;100256.47;;;;-53
2019/06/03 10:24:51;;;;;;;7.37;2.80;;;;;;;21.37;52.58;100252.00;;;;-52
2019/06/03 10:27:51;;;;;;;8.47;2.76;;;;;;;21.38;52.51;100246.83;;;;-51
2019/06/03 10:30:51;;;;;;;5.44;2.78;;;;;;;21.39;52.58;100247.84;;;;-52
2019/06/03 10:33:51;;;;;;;5.60;2.67;;;;;;;21.40;52.54;100250.63;;;;-58
2019/06/03 10:36:51;;;;;;;5.81;2.60;;;;;;;21.40;52.61;100236.34;;;;-52
2019/06/03 10:39:51;;;;;;;3.57;2.65;;;;;;;21.40;52.62;100238.22;;;;-52
2019/06/03 10:42:51;;;;;;;6.53;2.83;;;;;;;21.42;52.53;100235.56;;;;-52
2019/06/03 10:45:51;;;;;;;7.24;2.91;;;;;;;21.42;52.60;100236.20;;;;-52
2019/06/03 10:48:51;;;;;;;8.45;2.82;;;;;;;21.43;52.56;100235.53;;;;-51
2019/06/03 10:51:52;;;;;;;5.53;2.70;;;;;;;21.43;52.64;100230.16;;;;-52
2019/06/03 10:54:52;;;;;;;6.77;2.69;;;;;;;21.44;52.51;100234.96;;;;-51
2019/06/03 10:57:52;;;;;;;12.04;2.86;;;;;;;21.45;52.83;100227.53;;;;-52
2019/06/03 11:00:51;;;;;;;10.34;2.99;;;;;;;21.45;52.75;100223.06;;;;-52
2019/06/03 11:03:51;;;;;;;7.05;2.79;;;;;;;21.44;52.57;100221.95;;;;-52
2019/06/03 11:06:51;;;;;;;14.04;3.00;;;;;;;21.45;52.64;100217.95;;;;-50
2019/06/03 11:18:39;;;;;;;5.41;2.57;;;;;;;21.88;51.41;100188.15;;;;-41
2019/06/03 11:21:39;;;;;;;8.41;2.88;;;;;;;21.93;51.20;100193.52;;;;-40
2019/06/03 11:24:40;;;;;;;7.88;2.77;;;;;;;21.96;51.21;100177.30;;;;-40
2019/06/03 11:27:40;;;;;;;6.27;2.62;;;;;;;22.01;50.98;100175.30;;;;-39
2019/06/03 11:30:39;;;;;;;4.57;2.57;;;;;;;22.03;50.98;100168.22;;;;-43
2019/06/03 11:38:20;;;;;;;6.35;3.12;;;;;;;21.80;51.43;100159.40;;;;-50
2019/06/03 11:41:20;;;;;;;7.41;2.79;;;;;;;21.75;51.54;100152.02;;;;-49
2019/06/03 11:44:20;;;;;;;9.03;2.75;;;;;;;21.71;51.93;100151.33;;;;-49
2019/06/03 11:47:20;;;;;;;6.38;2.83;;;;;;;21.67;51.76;100149.02;;;;-49
2019/06/03 11:50:20;;;;;;;4.74;2.46;;;;;;;21.64;51.76;100147.61;;;;-49
2019/06/03 11:53:20;;;;;;;3.92;2.77;;;;;;;21.61;51.82;100143.29;;;;-49
2019/06/03 11:56:20;;;;;;;6.65;2.77;;;;;;;21.58;51.84;100144.91;;;;-57
2019/06/03 11:59:20;;;;;;;4.15;2.37;;;;;;;21.56;51.80;100136.65;;;;-49
2019/06/03 12:02:20;;;;;;;4.79;2.73;;;;;;;21.55;51.90;100142.06;;;;-49
2019/06/03 12:05:20;;;;;;;5.03;2.57;;;;;;;21.53;51.82;100142.09;;;;-49
2019/06/03 12:08:20;;;;;;;6.18;2.60;;;;;;;21.52;51.84;100133.67;;;;-49
2019/06/03 12:11:20;;;;;;;4.19;2.71;;;;;;;21.51;51.82;100133.53;;;;-49
2019/06/03 12:14:21;;;;;;;4.78;2.65;;;;;;;21.50;51.81;100129.57;;;;-50
2019/06/03 12:17:20;;;;;;;4.37;2.70;;;;;;;21.50;51.82;100120.27;;;;-51
2019/06/03 12:20:20;;;;;;;7.29;2.84;;;;;;;21.50;51.87;100115.46;;;;-49
2019/06/03 12:23:20;;;;;;;4.42;2.77;;;;;;;21.50;51.91;100103.02;;;;-48
2019/06/03 12:26:20;;;;;;;4.58;2.62;;;;;;;21.49;52.00;100102.76;;;;-48
2019/06/03 12:29:20;;;;;;;4.73;2.40;;;;;;;21.51;51.95;100099.03;;;;-49
2019/06/03 12:32:20;;;;;;;6.64;2.64;;;;;;;21.51;52.10;100097.61;;;;-52
2019/06/03 12:35:20;;;;;;;5.13;2.43;;;;;;;21.53;52.13;100103.19;;;;-50
2019/06/03 12:38:21;;;;;;;6.12;2.79;;;;;;;21.54;52.37;100109.03;;;;-49
2019/06/03 12:41:20;;;;;;;8.41;2.80;;;;;;;21.54;52.29;100115.52;;;;-50
2019/06/03 12:44:20;;;;;;;9.49;2.86;;;;;;;21.56;52.45;100132.11;;;;-47
2019/06/03 12:47:21;;;;;;;6.63;2.75;;;;;;;21.56;52.46;100138.94;;;;-50
2019/06/03 12:50:20;;;;;;;8.69;2.70;;;;;;;21.57;52.31;100154.42;;;;-49
2019/06/03 12:53:20;;;;;;;7.81;3.02;;;;;;;21.58;52.40;100166.28;;;;-50
2019/06/03 12:56:20;;;;;;;7.18;2.63;;;;;;;21.58;52.38;100173.64;;;;-50
2019/06/03 12:59:20;;;;;;;10.98;2.70;;;;;;;21.58;52.48;100221.81;;;;-50
2019/06/03 13:02:20;;;;;;;6.79;2.67;;;;;;;21.58;52.32;100225.84;;;;-52
2019/06/03 13:05:20;;;;;;;9.66;2.95;;;;;;;21.59;52.13;100237.33;;;;-49
2019/06/03 13:08:20;;;;;;;5.54;2.51;;;;;;;21.56;52.27;100240.94;;;;-51
2019/06/03 13:11:20;;;;;;;7.08;2.82;;;;;;;21.57;52.39;100274.47;;;;-50
2019/06/03 13:14:20;;;;;;;9.84;2.83;;;;;;;21.57;52.40;100280.02;;;;-51
2019/06/03 13:17:20;;;;;;;6.58;2.59;;;;;;;21.58;52.43;100305.77;;;;-48
2019/06/03 13:20:20;;;;;;;5.89;2.45;;;;;;;21.58;52.46;100329.19;;;;-48
2019/06/03 13:23:20;;;;;;;5.65;2.47;;;;;;;21.58;52.42;100364.31;;;;-50
2019/06/03 13:26:20;;;;;;;5.72;2.56;;;;;;;21.59;52.37;100365.89;;;;-47
2019/06/03 13:29:20;;;;;;;5.60;2.61;;;;;;;21.60;52.37;100382.67;;;;-48
2019/06/03 13:32:20;;;;;;;6.34;2.90;;;;;;;21.60;52.36;100391.91;;;;-57
2019/06/03 13:35:20;;;;;;;6.99;2.71;;;;;;;21.62;52.53;100404.88;;;;-60
2019/06/03 13:38:20;;;;;;;4.28;2.65;;;;;;;21.61;52.51;100439.50;;;;-51
2019/06/03 13:41:20;;;;;;;4.91;2.59;;;;;;;21.61;52.42;100472.62;;;;-50
2019/06/03 13:44:20;;;;;;;6.87;2.46;;;;;;;21.61;52.46;100476.41;;;;-49
2019/06/03 13:47:20;;;;;;;4.17;2.37;;;;;;;21.61;52.46;100485.89;;;;-49
2019/06/03 13:50:20;;;;;;;4.34;2.51;;;;;;;21.62;52.54;100492.89;;;;-50
2019/06/03 13:53:20;;;;;;;5.13;2.57;;;;;;;21.62;52.47;100475.95;;;;-55
2019/06/03 13:56:20;;;;;;;4.91;2.52;;;;;;;21.63;52.51;100479.88;;;;-59
2019/06/03 13:59:20;;;;;;;3.31;2.29;;;;;;;21.64;52.47;100486.91;;;;-61
2019/06/03 14:02:20;;;;;;;4.03;2.29;;;;;;;21.63;52.57;100477.80;;;;-58
2019/06/03 14:05:20;;;;;;;4.70;2.46;;;;;;;21.63;52.46;100474.44;;;;-60
2019/06/03 14:08:20;;;;;;;4.07;2.41;;;;;;;21.63;52.51;100473.63;;;;-62
2019/06/03 14:11:20;;;;;;;5.00;2.41;;;;;;;21.64;52.40;100479.55;;;;-59
2019/06/03 14:14:20;;;;;;;3.54;2.30;;;;;;;21.63;52.50;100487.44;;;;-59
2019/06/03 14:17:20;;;;;;;3.46;2.43;;;;;;;21.63;52.39;100478.63;;;;-58
2019/06/03 14:20:20;;;;;;;6.26;2.28;;;;;;;21.63;52.41;100476.22;;;;-57
2019/06/03 14:23:20;;;;;;;2.77;2.15;;;;;;;21.63;52.40;100478.34;;;;-58
2019/06/03 14:26:21;;;;;;;4.45;2.49;;;;;;;21.65;52.55;100476.12;;;;-56
2019/06/03 14:29:20;;;;;;;3.81;2.37;;;;;;;21.65;52.50;100468.39;;;;-61
2019/06/03 14:32:20;;;;;;;6.17;2.46;;;;;;;21.65;52.46;100457.86;;;;-61
2019/06/03 14:35:20;;;;;;;3.19;2.12;;;;;;;21.67;52.57;100434.98;;;;-57
2019/06/03 14:38:20;;;;;;;3.32;2.25;;;;;;;21.64;52.45;100431.31;;;;-60
2019/06/03 14:41:20;;;;;;;3.83;2.55;;;;;;;21.67;52.38;100440.69;;;;-60
2019/06/03 14:44:20;;;;;;;4.19;2.54;;;;;;;21.66;52.44;100432.55;;;;-56
2019/06/03 14:47:20;;;;;;;4.48;2.37;;;;;;;21.68;52.38;100429.06;;;;-62
2019/06/03 14:50:20;;;;;;;5.78;2.38;;;;;;;21.67;52.40;100419.55;;;;-57
2019/06/03 14:53:20;;;;;;;4.13;2.20;;;;;;;21.68;52.41;100411.75;;;;-58
2019/06/03 14:56:20;;;;;;;7.11;2.28;;;;;;;21.68;52.34;100411.58;;;;-60
2019/06/03 14:59:20;;;;;;;3.93;2.30;;;;;;;21.67;52.44;100404.76;;;;-60
2019/06/03 15:02:20;;;;;;;3.31;2.11;;;;;;;21.68;52.48;100386.98;;;;-59
2019/06/03 15:05:20;;;;;;;5.74;2.33;;;;;;;21.68;52.45;100372.99;;;;-57
2019/06/03 15:08:20;;;;;;;4.11;2.01;;;;;;;21.67;52.49;100382.97;;;;-50
2019/06/03 15:11:20;;;;;;;3.12;2.23;;;;;;;21.68;52.49;100373.16;;;;-52
2019/06/03 15:14:20;;;;;;;3.81;2.25;;;;;;;21.67;52.49;100377.09;;;;-56
2019/06/03 15:17:20;;;;;;;3.09;2.18;;;;;;;21.68;52.32;100385.63;;;;-50
2019/06/03 15:20:20;;;;;;;3.63;2.17;;;;;;;21.67;52.22;100384.66;;;;-51
2019/06/03 15:23:20;;;;;;;3.20;2.19;;;;;;;21.68;52.32;100366.94;;;;-51
2019/06/03 15:26:20;;;;;;;4.67;2.16;;;;;;;21.66;52.25;100369.02;;;;-51
2019/06/03 15:29:20;;;;;;;3.23;2.30;;;;;;;21.65;52.20;100367.88;;;;-51
2019/06/03 15:32:20;;;;;;;4.47;2.22;;;;;;;21.64;52.16;100380.75;;;;-51
2019/06/03 15:35:20;;;;;;;2.85;2.27;;;;;;;21.63;52.11;100383.61;;;;-51
2019/06/03 15:38:20;;;;;;;2.55;2.11;;;;;;;21.63;52.06;100399.74;;;;-51
2019/06/03 15:41:21;;;;;;;4.87;2.28;;;;;;;21.63;52.20;100386.09;;;;-52
2019/06/03 15:44:21;;;;;;;5.25;2.27;;;;;;;21.62;52.29;100395.10;;;;-53
2019/06/03 15:47:20;;;;;;;8.87;2.34;;;;;;;21.62;52.36;100418.30;;;;-53
2019/06/03 15:50:20;;;;;;;4.35;2.21;;;;;;;21.63;52.49;100428.66;;;;-52
2019/06/03 15:53:20;;;;;;;3.20;1.97;;;;;;;21.63;52.47;100443.61;;;;-52
2019/06/03 15:56:20;;;;;;;3.20;2.06;;;;;;;21.64;52.46;100430.44;;;;-57
2019/06/03 15:59:20;;;;;;;4.75;2.11;;;;;;;21.64;52.47;100425.49;;;;-56
2019/06/03 16:02:20;;;;;;;5.47;2.16;;;;;;;21.64;52.40;100428.79;;;;-57
2019/06/03 16:05:20;;;;;;;4.21;2.20;;;;;;;21.66;52.54;100414.60;;;;-55
2019/06/03 16:08:20;;;;;;;2.69;2.09;;;;;;;21.67;52.43;100416.66;;;;-53
2019/06/03 16:11:20;;;;;;;3.43;2.06;;;;;;;21.66;52.57;100417.94;;;;-53
2019/06/03 16:14:20;;;;;;;4.18;2.07;;;;;;;21.66;52.46;100416.09;;;;-51
2019/06/03 16:17:20;;;;;;;3.36;2.23;;;;;;;21.68;52.49;100413.33;;;;-54
2019/06/03 16:20:20;;;;;;;3.43;2.12;;;;;;;21.68;52.58;100406.37;;;;-52
2019/06/03 16:23:20;;;;;;;6.42;2.11;;;;;;;21.68;52.43;100394.67;;;;-56
2019/06/03 16:26:20;;;;;;;5.38;2.19;;;;;;;21.68;52.47;100379.48;;;;-52
2019/06/03 16:29:20;;;;;;;5.79;2.23;;;;;;;21.71;52.61;100372.13;;;;-57
2019/06/03 16:32:20;;;;;;;7.34;2.32;;;;;;;21.72;52.61;100367.95;;;;-51
2019/06/03 16:35:20;;;;;;;4.55;2.24;;;;;;;21.73;52.64;100365.77;;;;-51
2019/06/03 16:38:20;;;;;;;5.12;2.31;;;;;;;21.71;52.73;100354.47;;;;-51
2019/06/03 16:41:20;;;;;;;8.61;2.49;;;;;;;21.72;52.71;100348.75;;;;-53
2019/06/03 16:44:20;;;;;;;4.52;2.17;;;;;;;21.72;52.82;100348.45;;;;-54
2019/06/03 16:47:20;;;;;;;3.65;2.45;;;;;;;21.72;52.87;100356.52;;;;-52
2019/06/03 16:50:20;;;;;;;4.32;2.29;;;;;;;21.74;52.62;100367.91;;;;-60
2019/06/03 16:53:20;;;;;;;4.71;2.13;;;;;;;21.75;52.73;100364.76;;;;-59
2019/06/03 16:56:20;;;;;;;3.88;2.23;;;;;;;21.78;52.80;100365.70;;;;-54